Averill, Minnesota
Current Conditions -  °F | °C
As of 8:11 PM on Saturday 22 Nov 2014 (Local Time) from KJKJ Reporting Station
Haze Haze  
Wind Chill: 26°   Ceiling: 500
Heat Index: 36°   Visibility: 5mi
Dew Point: 36°   Wind: 16mph
Humidity: 100%   Direction: 160°SSE
Pressure: 29.41"   Gusts: 26mph
Location:  46.8905°N, 96.5417°W
Report Text: KJKJ 230211Z AUTO 16014G23KT 5SM BR OVC005 02/02 A2941 RMK AO2
Loading
Personal Weather Stations






























Interactive Weather Map New forecast layout! Learn more

10-Day Weather Forecast

Advertisements
Track Severe Weather on mobile